Time,TemperatureF,DewpointF,PressureIn,WindDirection,WindDirectionDegrees,WindSpeedMPH,WindSpeedGustMPH,Humidity,HourlyPrecipIn,Conditions,Clouds,dailyrainin,SoftwareType,DateUTC
2013-07-17 00:00:00,77.9,70.5,0.00,East,83,0.0,0.0,78,0.00,,---,0.00,VWS V13.01,2013-07-17 04:00:00,
2013-07-17 00:01:00,77.9,70.5,0.00,East,83,0.0,0.0,78,0.00,,---,0.00,VWS V13.01,2013-07-17 04:01:00,
2013-07-17 00:02:00,77.9,70.5,0.00,East,83,0.0,0.0,78,0.00,,---,0.00,VWS V13.01,2013-07-17 04:02:00,
2013-07-17 00:07:00,77.9,70.5,0.00,East,83,0.0,0.0,78,0.00,,---,0.00,VWS V13.01,2013-07-17 04:07:00,
2013-07-17 00:12:00,77.7,70.3,0.00,East,83,0.0,0.0,78,0.00,,---,0.00,VWS V13.01,2013-07-17 04:12:00,
2013-07-17 00:17:00,77.7,70.7,0.00,East,83,0.0,0.0,79,0.00,,---,0.00,VWS V13.01,2013-07-17 04:17:00,
2013-07-17 00:22:00,77.5,70.5,0.00,East,83,0.0,0.0,79,0.00,,---,0.00,VWS V13.01,2013-07-17 04:22:00,
2013-07-17 00:27:00,77.4,70.3,0.00,East,83,0.0,0.0,79,0.00,,---,0.00,VWS V13.01,2013-07-17 04:27:00,
2013-07-17 00:32:00,77.4,70.7,0.00,East,83,0.0,0.0,80,0.00,,---,0.00,VWS V13.01,2013-07-17 04:32:00,
2013-07-17 00:37:00,77.4,70.7,0.00,East,83,0.0,0.0,80,0.00,,---,0.00,VWS V13.01,2013-07-17 04:37:00,
2013-07-17 00:42:00,77.2,70.5,0.00,East,83,0.0,0.0,80,0.00,,---,0.00,VWS V13.01,2013-07-17 04:42:00,
2013-07-17 00:47:00,77.0,70.4,0.00,East,83,0.0,0.0,80,0.00,,---,0.00,VWS V13.01,2013-07-17 04:47:00,
2013-07-17 00:52:00,77.0,70.7,0.00,East,83,0.0,0.0,81,0.00,,---,0.00,VWS V13.01,2013-07-17 04:52:00,
2013-07-17 00:55:00,77.0,70.7,0.00,East,83,0.0,0.0,81,0.00,,---,0.00,VWS V13.01,2013-07-17 04:55:00,
2013-07-17 01:00:00,76.8,70.9,0.00,East,83,0.0,0.0,82,0.00,,---,0.00,VWS V13.01,2013-07-17 05:00:00,
2013-07-17 01:05:00,76.8,70.9,0.00,East,83,0.0,0.0,82,0.00,,---,0.00,VWS V13.01,2013-07-17 05:05:00,
2013-07-17 01:10:00,76.6,70.7,0.00,East,83,0.0,0.0,82,0.00,,---,0.00,VWS V13.01,2013-07-17 05:10:00,
2013-07-17 01:15:00,76.5,70.6,0.00,East,83,0.0,0.0,82,0.00,,---,0.00,VWS V13.01,2013-07-17 05:15:00,
2013-07-17 01:20:00,76.3,70.4,0.00,East,83,0.0,0.0,82,0.00,,---,0.00,VWS V13.01,2013-07-17 05:20:00,
2013-07-17 01:25:00,76.3,70.7,0.00,East,83,0.0,0.0,83,0.00,,---,0.00,VWS V13.01,2013-07-17 05:25:00,
2013-07-17 01:30:00,76.3,70.7,0.00,East,83,0.0,0.0,83,0.00,,---,0.00,VWS V13.01,2013-07-17 05:30:00,
2013-07-17 01:35:00,76.3,71.1,0.00,East,83,0.0,0.0,84,0.00,,---,0.00,VWS V13.01,2013-07-17 05:35:00,
2013-07-17 01:40:00,76.3,71.1,0.00,East,83,0.0,0.0,84,0.00,,---,0.00,VWS V13.01,2013-07-17 05:40:00,
2013-07-17 01:45:00,76.1,70.9,0.00,East,83,0.0,0.0,84,0.00,,---,0.00,VWS V13.01,2013-07-17 05:45:00,
2013-07-17 01:50:00,76.1,70.9,0.00,East,83,0.0,0.0,84,0.00,,---,0.00,VWS V13.01,2013-07-17 05:50:00,
2013-07-17 01:55:00,75.9,70.7,0.00,East,83,0.0,0.0,84,0.00,,---,0.00,VWS V13.01,2013-07-17 05:55:00,
2013-07-17 02:00:00,76.1,71.3,0.00,East,83,0.0,0.0,85,0.00,,---,0.00,VWS V13.01,2013-07-17 06:00:00,
2013-07-17 02:05:00,76.1,71.3,0.00,East,83,0.0,0.0,85,0.00,,---,0.00,VWS V13.01,2013-07-17 06:05:00,
2013-07-17 02:10:00,76.1,71.3,0.00,East,83,0.0,0.0,85,0.00,,---,0.00,VWS V13.01,2013-07-17 06:10:00,
2013-07-17 02:15:00,76.1,71.6,0.00,East,83,0.0,0.0,86,0.00,,---,0.00,VWS V13.01,2013-07-17 06:15:00,
2013-07-17 02:20:00,76.1,71.6,0.00,East,83,0.0,0.0,86,0.00,,---,0.00,VWS V13.01,2013-07-17 06:20:00,
2013-07-17 02:25:00,76.1,71.6,0.00,East,83,0.0,0.0,86,0.00,,---,0.00,VWS V13.01,2013-07-17 06:25:00,
2013-07-17 02:30:00,76.1,71.6,0.00,East,83,0.0,0.0,86,0.00,,---,0.00,VWS V13.01,2013-07-17 06:30:00,
2013-07-17 02:35:00,76.1,71.6,0.00,East,83,0.0,0.0,86,0.00,,---,0.00,VWS V13.01,2013-07-17 06:35:00,
2013-07-17 02:40:00,76.1,71.6,0.00,East,83,0.0,0.0,86,0.00,,---,0.00,VWS V13.01,2013-07-17 06:40:00,
2013-07-17 02:45:00,76.1,71.6,0.00,East,83,0.0,0.0,86,0.00,,---,0.00,VWS V13.01,2013-07-17 06:45:00,
2013-07-17 02:50:00,76.1,71.6,0.00,East,83,0.0,0.0,86,0.00,,---,0.00,VWS V13.01,2013-07-17 06:50:00,
2013-07-17 02:55:00,76.1,71.6,0.00,East,83,0.0,0.0,86,0.00,,---,0.00,VWS V13.01,2013-07-17 06:55:00,
2013-07-17 03:00:00,75.9,71.4,0.00,East,83,0.0,0.0,86,0.00,,---,0.00,VWS V13.01,2013-07-17 07:00:00,
2013-07-17 03:05:00,75.9,71.4,0.00,East,83,0.0,0.0,86,0.00,,---,0.00,VWS V13.01,2013-07-17 07:05:00,
2013-07-17 03:10:00,75.9,71.4,0.00,East,83,0.0,0.0,86,0.00,,---,0.00,VWS V13.01,2013-07-17 07:10:00,
2013-07-17 03:15:00,75.7,71.3,0.00,East,83,0.0,0.0,86,0.00,,---,0.00,VWS V13.01,2013-07-17 07:15:00,
2013-07-17 03:20:00,75.7,71.3,0.00,East,83,0.0,0.0,86,0.00,,---,0.00,VWS V13.01,2013-07-17 07:20:00,
2013-07-17 03:25:00,75.6,71.1,0.00,East,83,0.0,0.0,86,0.00,,---,0.00,VWS V13.01,2013-07-17 07:25:00,
2013-07-17 03:30:00,75.6,71.4,0.00,East,83,0.0,0.0,87,0.00,,---,0.00,VWS V13.01,2013-07-17 07:30:00,
2013-07-17 03:36:00,75.4,71.2,0.00,East,83,0.0,0.0,87,0.00,,---,0.00,VWS V13.01,2013-07-17 07:36:00,
2013-07-17 03:41:00,75.2,71.1,0.00,East,83,0.0,0.0,87,0.00,,---,0.00,VWS V13.01,2013-07-17 07:41:00,
2013-07-17 03:46:00,75.2,71.1,0.00,East,83,0.0,0.0,87,0.00,,---,0.00,VWS V13.01,2013-07-17 07:46:00,
2013-07-17 03:51:00,75.0,70.9,0.00,East,83,0.0,0.0,87,0.00,,---,0.00,VWS V13.01,2013-07-17 07:51:00,
2013-07-17 03:56:00,75.0,71.2,0.00,East,83,0.0,0.0,88,0.00,,---,0.00,VWS V13.01,2013-07-17 07:56:00,
2013-07-17 04:01:00,75.0,71.2,0.00,East,83,0.0,0.0,88,0.00,,---,0.00,VWS V13.01,2013-07-17 08:01:00,
2013-07-17 04:06:00,75.0,71.2,0.00,East,83,0.0,0.0,88,0.00,,---,0.00,VWS V13.01,2013-07-17 08:06:00,
2013-07-17 04:11:00,74.8,71.1,0.00,East,83,0.0,0.0,88,0.00,,---,0.00,VWS V13.01,2013-07-17 08:11:00,
2013-07-17 04:16:00,74.8,71.1,0.00,East,83,0.0,0.0,88,0.00,,---,0.00,VWS V13.01,2013-07-17 08:16:00,
2013-07-17 04:21:00,74.7,70.9,0.00,East,83,0.0,0.0,88,0.00,,---,0.00,VWS V13.01,2013-07-17 08:21:00,
2013-07-17 04:26:00,74.7,70.9,0.00,East,83,0.0,0.0,88,0.00,,---,0.00,VWS V13.01,2013-07-17 08:26:00,
2013-07-17 04:31:00,74.7,70.9,0.00,East,83,0.0,0.0,88,0.00,,---,0.00,VWS V13.01,2013-07-17 08:31:00,
2013-07-17 04:36:00,74.7,71.2,0.00,East,83,0.0,0.0,89,0.00,,---,0.00,VWS V13.01,2013-07-17 08:36:00,
2013-07-17 04:41:00,74.5,70.7,0.00,East,83,0.0,0.0,88,0.00,,---,0.00,VWS V13.01,2013-07-17 08:41:00,
2013-07-17 04:46:00,74.5,70.7,0.00,East,83,0.0,0.0,88,0.00,,---,0.00,VWS V13.01,2013-07-17 08:46:00,
2013-07-17 04:51:00,74.3,70.5,0.00,East,83,0.0,0.0,88,0.00,,---,0.00,VWS V13.01,2013-07-17 08:51:00,
2013-07-17 04:56:00,74.3,70.5,0.00,East,83,0.0,0.0,88,0.00,,---,0.00,VWS V13.01,2013-07-17 08:56:00,
2013-07-17 05:01:00,74.1,70.7,0.00,East,83,0.0,0.0,89,0.00,,---,0.00,VWS V13.01,2013-07-17 09:01:00,
2013-07-17 05:06:00,74.1,70.7,0.00,East,83,0.0,0.0,89,0.00,,---,0.00,VWS V13.01,2013-07-17 09:06:00,
2013-07-17 05:11:00,74.1,70.7,0.00,East,83,0.0,0.0,89,0.00,,---,0.00,VWS V13.01,2013-07-17 09:11:00,
2013-07-17 05:16:00,74.1,70.7,0.00,East,83,0.0,0.0,89,0.00,,---,0.00,VWS V13.01,2013-07-17 09:16:00,
2013-07-17 05:21:00,73.9,70.5,0.00,East,83,0.0,0.0,89,0.00,,---,0.00,VWS V13.01,2013-07-17 09:21:00,
2013-07-17 05:26:00,73.9,70.5,0.00,East,83,0.0,0.0,89,0.00,,---,0.00,VWS V13.01,2013-07-17 09:26:00,
2013-07-17 05:31:00,74.1,70.7,0.00,East,83,0.0,0.0,89,0.00,,---,0.00,VWS V13.01,2013-07-17 09:31:00,
2013-07-17 05:36:00,74.1,70.7,0.00,East,83,0.0,0.0,89,0.00,,---,0.00,VWS V13.01,2013-07-17 09:36:00,
2013-07-17 05:41:00,73.9,70.5,0.00,East,83,0.0,0.0,89,0.00,,---,0.00,VWS V13.01,2013-07-17 09:41:00,
2013-07-17 05:46:00,73.9,70.5,0.00,East,83,0.0,0.0,89,0.00,,---,0.00,VWS V13.01,2013-07-17 09:46:00,
2013-07-17 05:51:00,73.8,70.3,0.00,East,83,0.0,0.0,89,0.00,,---,0.00,VWS V13.01,2013-07-17 09:51:00,
2013-07-17 05:56:00,73.8,70.3,0.00,East,83,0.0,0.0,89,0.00,,---,0.00,VWS V13.01,2013-07-17 09:56:00,
2013-07-17 06:01:00,73.6,70.1,0.00,East,83,0.0,0.0,89,0.00,,---,0.00,VWS V13.01,2013-07-17 10:01:00,
2013-07-17 06:06:00,73.6,70.1,0.00,East,83,0.0,0.0,89,0.00,,---,0.00,VWS V13.01,2013-07-17 10:06:00,
2013-07-17 06:11:00,73.6,70.1,0.00,East,83,0.0,0.0,89,0.00,,---,0.00,VWS V13.01,2013-07-17 10:11:00,
2013-07-17 06:16:00,73.6,70.5,0.00,East,83,0.0,0.0,90,0.00,,---,0.00,VWS V13.01,2013-07-17 10:16:00,
2013-07-17 06:21:00,73.4,70.3,0.00,East,83,0.0,0.0,90,0.00,,---,0.00,VWS V13.01,2013-07-17 10:21:00,
2013-07-17 06:26:00,73.4,70.3,0.00,East,83,0.0,0.0,90,0.00,,---,0.00,VWS V13.01,2013-07-17 10:26:00,
2013-07-17 06:31:00,73.4,70.3,0.00,East,83,0.0,0.0,90,0.00,,---,0.00,VWS V13.01,2013-07-17 10:31:00,
2013-07-17 06:36:00,73.4,70.3,0.00,East,83,0.0,0.0,90,0.00,,---,0.00,VWS V13.01,2013-07-17 10:36:00,
2013-07-17 06:41:00,73.4,70.3,0.00,East,83,0.0,0.0,90,0.00,,---,0.00,VWS V13.01,2013-07-17 10:41:00,
2013-07-17 06:46:00,73.4,70.3,0.00,East,83,0.0,0.0,90,0.00,,---,0.00,VWS V13.01,2013-07-17 10:46:00,
2013-07-17 06:51:00,73.4,70.3,0.00,East,83,0.0,0.0,90,0.00,,---,0.00,VWS V13.01,2013-07-17 10:51:00,
2013-07-17 06:56:00,73.4,70.3,0.00,East,83,0.0,0.0,90,0.00,,---,0.00,VWS V13.01,2013-07-17 10:56:00,
2013-07-17 07:01:00,73.4,70.3,0.00,East,83,0.0,0.0,90,0.00,,---,0.00,VWS V13.01,2013-07-17 11:01:00,
2013-07-17 07:06:00,73.6,70.5,0.00,East,83,0.0,0.0,90,0.00,,---,0.00,VWS V13.01,2013-07-17 11:06:00,
2013-07-17 07:11:00,73.8,70.7,0.00,East,83,0.0,0.0,90,0.00,,---,0.00,VWS V13.01,2013-07-17 11:11:00,
2013-07-17 07:16:00,73.9,71.2,0.00,East,83,0.0,0.0,91,0.00,,---,0.00,VWS V13.01,2013-07-17 11:16:00,
2013-07-17 07:21:00,73.9,71.2,0.00,East,83,0.0,0.0,91,0.00,,---,0.00,VWS V13.01,2013-07-17 11:21:00,
2013-07-17 07:26:00,74.1,71.3,0.00,East,83,0.0,0.0,91,0.00,,---,0.00,VWS V13.01,2013-07-17 11:26:00,
2013-07-17 07:31:00,74.1,71.0,0.00,East,83,0.0,0.0,90,0.00,,---,0.00,VWS V13.01,2013-07-17 11:31:00,
2013-07-17 07:36:00,74.3,71.5,0.00,East,83,0.0,0.0,91,0.00,,---,0.00,VWS V13.01,2013-07-17 11:36:00,
2013-07-17 07:41:00,74.5,71.7,0.00,East,83,0.0,0.0,91,0.00,,---,0.00,VWS V13.01,2013-07-17 11:41:00,
2013-07-17 07:46:00,74.7,71.9,0.00,East,83,0.0,0.0,91,0.00,,---,0.00,VWS V13.01,2013-07-17 11:46:00,
2013-07-17 07:51:00,75.0,72.2,0.00,East,83,0.0,0.0,91,0.00,,---,0.00,VWS V13.01,2013-07-17 11:51:00,
2013-07-17 07:56:00,75.4,72.2,0.00,East,83,0.0,0.0,90,0.00,,---,0.00,VWS V13.01,2013-07-17 11:56:00,
2013-07-17 08:01:00,75.6,72.4,0.00,East,83,0.0,0.0,90,0.00,,---,0.00,VWS V13.01,2013-07-17 12:01:00,
2013-07-17 08:06:00,75.7,72.6,0.00,East,83,0.0,0.0,90,0.00,,---,0.00,VWS V13.01,2013-07-17 12:06:00,
2013-07-17 08:11:00,75.9,72.8,0.00,East,83,0.0,0.0,90,0.00,,---,0.00,VWS V13.01,2013-07-17 12:11:00,
2013-07-17 08:16:00,75.9,72.4,0.00,SSE,168,0.0,0.0,89,0.00,,---,0.00,VWS V13.01,2013-07-17 12:16:00,
2013-07-17 08:21:00,76.3,72.8,0.00,SSE,168,0.0,0.0,89,0.00,,---,0.00,VWS V13.01,2013-07-17 12:21:00,
2013-07-17 08:26:00,76.6,73.2,0.00,SSE,168,0.0,0.0,89,0.00,,---,0.00,VWS V13.01,2013-07-17 12:26:00,
2013-07-17 08:31:00,77.0,73.5,0.00,SSE,168,0.0,0.0,89,0.00,,---,0.00,VWS V13.01,2013-07-17 12:31:00,
2013-07-17 08:36:00,77.5,73.7,0.00,SSE,168,0.0,0.0,88,0.00,,---,0.00,VWS V13.01,2013-07-17 12:36:00,
2013-07-17 08:41:00,77.7,73.9,0.00,SSE,168,0.0,0.0,88,0.00,,---,0.00,VWS V13.01,2013-07-17 12:41:00,
2013-07-17 08:46:00,77.9,73.7,0.00,SSE,168,0.0,0.0,87,0.00,,---,0.00,VWS V13.01,2013-07-17 12:46:00,
2013-07-17 08:51:00,78.4,74.2,0.00,SSE,168,0.0,0.0,87,0.00,,---,0.00,VWS V13.01,2013-07-17 12:51:00,
2013-07-17 08:56:00,78.8,74.6,0.00,South,172,0.0,0.0,87,0.00,,---,0.00,VWS V13.01,2013-07-17 12:56:00,
2013-07-17 09:01:00,79.3,74.8,0.00,South,182,0.0,0.0,86,0.00,,---,0.00,VWS V13.01,2013-07-17 13:01:00,
2013-07-17 09:06:00,79.9,75.0,0.00,North,0,0.0,0.0,85,0.00,,---,0.00,VWS V13.01,2013-07-17 13:06:00,
2013-07-17 09:11:00,80.2,74.6,0.00,NE,43,0.0,0.0,83,0.00,,---,0.00,VWS V13.01,2013-07-17 13:11:00,
2013-07-17 09:16:00,80.6,73.5,0.00,East,96,0.0,0.0,79,0.00,,---,0.00,VWS V13.01,2013-07-17 13:16:00,
2013-07-17 09:21:00,81.3,74.2,0.00,NE,47,0.0,0.0,79,0.00,,---,0.00,VWS V13.01,2013-07-17 13:21:00,
2013-07-17 09:26:00,81.9,74.3,0.00,NE,47,0.0,0.0,78,0.00,,---,0.00,VWS V13.01,2013-07-17 13:26:00,
2013-07-17 09:31:00,82.4,74.1,0.00,NE,47,0.0,0.0,76,0.00,,---,0.00,VWS V13.01,2013-07-17 13:31:00,
2013-07-17 09:36:00,82.6,73.9,0.00,NE,47,0.0,0.0,75,0.00,,---,0.00,VWS V13.01,2013-07-17 13:36:00,
2013-07-17 09:41:00,82.9,73.0,0.00,NE,47,0.0,0.0,72,0.00,,---,0.00,VWS V13.01,2013-07-17 13:41:00,
2013-07-17 09:46:00,83.5,73.1,0.00,NE,47,0.0,0.0,71,0.00,,---,0.00,VWS V13.01,2013-07-17 13:46:00,
2013-07-17 09:51:00,84.0,73.2,0.00,NNE,19,0.0,0.0,70,0.00,,---,0.00,VWS V13.01,2013-07-17 13:51:00,
2013-07-17 09:56:00,84.6,72.8,0.00,NNE,19,0.0,0.0,68,0.00,,---,0.00,VWS V13.01,2013-07-17 13:56:00,
2013-07-17 10:01:00,85.3,74.0,0.00,South,190,0.0,0.0,69,0.00,,---,0.00,VWS V13.01,2013-07-17 14:01:00,
2013-07-17 10:06:00,85.3,73.1,0.00,ENE,68,0.0,0.0,67,0.00,,---,0.00,VWS V13.01,2013-07-17 14:06:00,
2013-07-17 10:11:00,85.8,73.2,0.00,NE,34,0.0,0.0,66,0.00,,---,0.00,VWS V13.01,2013-07-17 14:11:00,
2013-07-17 10:16:00,86.0,72.9,0.00,NE,34,0.0,0.0,65,0.00,,---,0.00,VWS V13.01,2013-07-17 14:16:00,
2013-07-17 10:21:00,85.8,72.7,0.00,NE,34,0.0,0.0,65,0.00,,---,0.00,VWS V13.01,2013-07-17 14:21:00,
2013-07-17 10:26:00,86.2,72.1,0.00,ENE,63,0.0,2.7,63,0.00,,---,0.00,VWS V13.01,2013-07-17 14:26:00,
2013-07-17 10:31:00,86.7,73.6,0.00,SE,124,0.0,2.7,65,0.00,,---,0.00,VWS V13.01,2013-07-17 14:31:00,
2013-07-17 10:36:00,87.1,73.0,0.00,South,172,0.0,2.7,63,0.00,,---,0.00,VWS V13.01,2013-07-17 14:36:00,
2013-07-17 10:41:00,87.8,73.6,0.00,SE,144,0.0,0.0,63,0.00,,---,0.00,VWS V13.01,2013-07-17 14:41:00,
2013-07-17 10:46:00,88.5,73.4,0.00,SW,224,0.0,4.0,61,0.00,,---,0.00,VWS V13.01,2013-07-17 14:46:00,
2013-07-17 10:51:00,89.2,73.1,0.00,SW,224,0.0,4.0,59,0.00,,---,0.00,VWS V13.01,2013-07-17 14:51:00,
2013-07-17 10:56:00,89.4,72.7,0.00,East,101,0.0,4.0,58,0.00,,---,0.00,VWS V13.01,2013-07-17 14:56:00,
2013-07-17 11:01:00,89.2,70.4,0.00,NE,39,0.0,4.0,54,0.00,,---,0.00,VWS V13.01,2013-07-17 15:01:00,
2013-07-17 11:06:00,88.9,69.6,0.00,WSW,247,0.0,4.0,53,0.00,,---,0.00,VWS V13.01,2013-07-17 15:06:00,
2013-07-17 11:11:00,88.9,69.6,0.00,North,10,0.0,5.4,53,0.00,,---,0.00,VWS V13.01,2013-07-17 15:11:00,
2013-07-17 11:16:00,88.9,69.6,0.00,NNE,27,0.0,5.4,53,0.00,,---,0.00,VWS V13.01,2013-07-17 15:16:00,
2013-07-17 11:21:00,89.1,70.8,0.00,North,8,0.0,0.0,55,0.00,,---,0.00,VWS V13.01,2013-07-17 15:21:00,
2013-07-17 11:26:00,89.4,69.5,0.00,NNE,14,0.0,0.0,52,0.00,,---,0.00,VWS V13.01,2013-07-17 15:26:00,
2013-07-17 11:31:00,89.8,68.7,0.00,ENE,65,0.0,0.0,50,0.00,,---,0.00,VWS V13.01,2013-07-17 15:31:00,
2013-07-17 11:36:00,90.1,70.7,0.00,ENE,65,0.0,0.0,53,0.00,,---,0.00,VWS V13.01,2013-07-17 15:36:00,
2013-07-17 11:41:00,89.8,71.5,0.00,SSW,210,0.0,0.0,55,0.00,,---,0.00,VWS V13.01,2013-07-17 15:41:00,
2013-07-17 11:46:00,89.6,70.8,0.00,SE,139,0.0,0.0,54,0.00,,---,0.00,VWS V13.01,2013-07-17 15:46:00,
2013-07-17 11:52:00,90.3,72.0,0.00,WSW,247,0.0,0.0,55,0.00,,---,0.00,VWS V13.01,2013-07-17 15:52:00,
2013-07-17 11:57:00,91.0,71.0,0.00,West,261,0.0,0.0,52,0.00,,---,0.00,VWS V13.01,2013-07-17 15:57:00,
2013-07-17 12:02:00,91.4,70.7,0.00,North,5,0.0,2.7,51,0.00,,---,0.00,VWS V13.01,2013-07-17 16:02:00,
2013-07-17 12:07:00,90.3,69.8,0.00,NNE,23,0.0,3.1,51,0.00,,---,0.00,VWS V13.01,2013-07-17 16:07:00,
2013-07-17 12:12:00,90.0,71.1,0.00,NNE,21,0.0,3.1,54,0.00,,---,0.00,VWS V13.01,2013-07-17 16:12:00,
2013-07-17 12:17:00,90.1,71.8,0.00,North,8,0.0,3.1,55,0.00,,---,0.00,VWS V13.01,2013-07-17 16:17:00,
2013-07-17 12:22:00,90.3,71.4,0.00,NE,49,2.7,3.1,54,0.00,,---,0.00,VWS V13.01,2013-07-17 16:22:00,
2013-07-17 12:27:00,89.6,69.7,0.00,North,349,0.0,4.0,52,0.00,,---,0.00,VWS V13.01,2013-07-17 16:27:00,
2013-07-17 12:32:00,89.6,70.8,0.00,West,270,0.0,4.0,54,0.00,,---,0.00,VWS V13.01,2013-07-17 16:32:00,
2013-07-17 12:37:00,90.9,74.1,0.00,North,357,0.0,4.0,58,0.00,,---,0.00,VWS V13.01,2013-07-17 16:37:00,
2013-07-17 12:42:00,91.6,69.7,0.00,North,357,0.0,0.0,49,0.00,,---,0.00,VWS V13.01,2013-07-17 16:42:00,
2013-07-17 12:47:00,92.5,72.3,0.00,North,357,0.0,0.0,52,0.00,,---,0.00,VWS V13.01,2013-07-17 16:47:00,
2013-07-17 12:52:00,92.8,70.3,0.00,North,357,0.0,0.0,48,0.00,,---,0.00,VWS V13.01,2013-07-17 16:52:00,
2013-07-17 12:57:00,92.8,69.0,0.00,North,357,0.0,0.0,46,0.00,,---,0.00,VWS V13.01,2013-07-17 16:57:00,
2013-07-17 13:02:00,92.7,68.2,0.00,NW,310,0.0,0.0,45,0.00,,---,0.00,VWS V13.01,2013-07-17 17:02:00,
2013-07-17 13:07:00,92.8,68.4,0.00,NW,310,0.0,0.0,45,0.00,,---,0.00,VWS V13.01,2013-07-17 17:07:00,
2013-07-17 13:12:00,92.8,67.7,0.00,NW,310,0.0,0.0,44,0.00,,---,0.00,VWS V13.01,2013-07-17 17:12:00,
2013-07-17 13:17:00,92.7,68.9,0.00,NW,310,0.0,0.0,46,0.00,,---,0.00,VWS V13.01,2013-07-17 17:17:00,
2013-07-17 13:22:00,93.7,68.6,0.00,NW,310,0.0,0.0,44,0.00,,---,0.00,VWS V13.01,2013-07-17 17:22:00,
2013-07-17 13:27:00,94.5,70.5,0.00,NW,310,0.0,0.0,46,0.00,,---,0.00,VWS V13.01,2013-07-17 17:27:00,
2013-07-17 13:32:00,94.5,68.5,0.00,NNW,335,2.7,2.7,43,0.00,,---,0.00,VWS V13.01,2013-07-17 17:32:00,
2013-07-17 13:37:00,94.1,66.8,0.00,NNW,335,0.0,2.7,41,0.00,,---,0.00,VWS V13.01,2013-07-17 17:37:00,
2013-07-17 13:42:00,94.6,65.1,0.00,SE,126,2.2,3.6,38,0.00,,---,0.00,VWS V13.01,2013-07-17 17:42:00,
2013-07-17 13:47:00,95.4,64.2,0.00,NE,45,2.2,3.6,36,0.00,,---,0.00,VWS V13.01,2013-07-17 17:47:00,
2013-07-17 13:52:00,95.5,63.5,0.00,SSE,160,2.7,3.6,35,0.00,,---,0.00,VWS V13.01,2013-07-17 17:52:00,
2013-07-17 13:57:00,94.8,63.7,0.00,NNE,29,0.0,5.4,36,0.00,,---,0.00,VWS V13.01,2013-07-17 17:57:00,
2013-07-17 14:02:00,95.0,66.2,0.00,NE,34,0.0,3.1,39,0.00,,---,0.00,VWS V13.01,2013-07-17 18:02:00,
2013-07-17 14:07:00,94.1,66.1,0.00,ENE,58,0.0,3.1,40,0.00,,---,0.00,VWS V13.01,2013-07-17 18:07:00,
2013-07-17 14:12:00,93.0,64.4,0.00,ENE,59,0.0,3.1,39,0.00,,---,0.00,VWS V13.01,2013-07-17 18:12:00,
2013-07-17 14:17:00,91.9,66.3,0.00,SSW,198,0.0,3.1,43,0.00,,---,0.00,VWS V13.01,2013-07-17 18:17:00,
2013-07-17 14:22:00,92.8,69.0,0.00,NW,304,0.0,0.0,46,0.00,,---,0.00,VWS V13.01,2013-07-17 18:22:00,
2013-07-17 14:27:00,93.2,68.1,0.00,SW,229,0.0,4.0,44,0.00,,---,0.00,VWS V13.01,2013-07-17 18:27:00,
2013-07-17 14:32:00,94.5,68.5,0.00,NNE,33,3.6,5.8,43,0.00,,---,0.00,VWS V13.01,2013-07-17 18:32:00,
2013-07-17 14:37:00,95.2,66.3,0.00,West,259,3.6,5.8,39,0.00,,---,0.00,VWS V13.01,2013-07-17 18:37:00,
2013-07-17 14:42:00,95.5,67.4,0.00,SW,232,0.0,4.0,40,0.00,,---,0.00,VWS V13.01,2013-07-17 18:42:00,
2013-07-17 14:47:00,95.4,63.4,0.00,SSW,197,3.1,5.8,35,0.00,,---,0.00,VWS V13.01,2013-07-17 18:47:00,
2013-07-17 14:52:00,94.1,63.9,0.00,SSE,167,0.0,5.8,37,0.00,,---,0.00,VWS V13.01,2013-07-17 18:52:00,
2013-07-17 14:58:00,93.4,66.2,0.00,NE,42,0.0,5.8,41,0.00,,---,0.00,VWS V13.01,2013-07-17 18:58:00,
2013-07-17 15:03:00,94.3,67.0,0.00,SW,217,2.2,2.2,41,0.00,,---,0.00,VWS V13.01,2013-07-17 19:03:00,
2013-07-17 15:08:00,93.9,66.7,0.00,West,263,0.0,2.2,41,0.00,,---,0.00,VWS V13.01,2013-07-17 19:08:00,
2013-07-17 15:13:00,92.7,64.8,0.00,West,263,0.0,2.2,40,0.00,,---,0.00,VWS V13.01,2013-07-17 19:13:00,
2013-07-17 15:18:00,91.4,67.1,0.00,West,263,0.0,2.2,45,0.00,,---,0.00,VWS V13.01,2013-07-17 19:18:00,
2013-07-17 15:23:00,92.1,69.0,0.00,West,263,0.0,0.0,47,0.00,,---,0.00,VWS V13.01,2013-07-17 19:23:00,
2013-07-17 15:28:00,93.4,70.8,0.00,SSE,166,0.0,2.2,48,0.00,,---,0.00,VWS V13.01,2013-07-17 19:28:00,
2013-07-17 15:33:00,94.1,66.1,0.00,NE,42,2.2,3.1,40,0.00,,---,0.00,VWS V13.01,2013-07-17 19:33:00,
2013-07-17 15:38:00,93.6,65.6,0.00,NE,42,0.0,3.1,40,0.00,,---,0.00,VWS V13.01,2013-07-17 19:38:00,
2013-07-17 15:43:00,93.2,70.0,0.00,NE,42,0.0,0.0,47,0.00,,---,0.00,VWS V13.01,2013-07-17 19:43:00,
2013-07-17 15:48:00,93.7,65.8,0.00,ESE,118,2.7,2.7,40,0.00,,---,0.00,VWS V13.01,2013-07-17 19:48:00,
2013-07-17 15:53:00,94.8,65.3,0.00,West,280,3.6,5.4,38,0.00,,---,0.00,VWS V13.01,2013-07-17 19:53:00,
2013-07-17 15:58:00,95.7,64.5,0.00,West,261,0.0,5.4,36,0.00,,---,0.00,VWS V13.01,2013-07-17 19:58:00,
2013-07-17 16:03:00,95.9,65.5,0.00,WSW,246,0.0,2.2,37,0.00,,---,0.00,VWS V13.01,2013-07-17 20:03:00,
2013-07-17 16:08:00,95.9,66.2,0.00,SSW,196,0.0,2.2,38,0.00,,---,0.00,VWS V13.01,2013-07-17 20:08:00,
2013-07-17 16:13:00,94.5,64.2,0.00,ESE,102,0.0,3.6,37,0.00,,---,0.00,VWS V13.01,2013-07-17 20:13:00,
2013-07-17 16:18:00,93.4,60.8,0.00,East,85,0.0,5.4,34,0.00,,---,0.00,VWS V13.01,2013-07-17 20:18:00,
2013-07-17 16:23:00,93.0,67.2,0.00,ESE,120,0.0,0.0,43,0.00,,---,0.00,VWS V13.01,2013-07-17 20:23:00,
2013-07-17 16:28:00,92.1,66.4,0.00,SE,130,0.0,3.1,43,0.00,,---,0.00,VWS V13.01,2013-07-17 20:28:00,
2013-07-17 16:33:00,91.9,68.2,0.00,SE,130,0.0,3.1,46,0.00,,---,0.00,VWS V13.01,2013-07-17 20:33:00,
2013-07-17 16:38:00,92.5,68.1,0.00,South,180,0.0,4.0,45,0.00,,---,0.00,VWS V13.01,2013-07-17 20:38:00,
2013-07-17 16:43:00,92.8,65.0,0.00,SE,129,2.7,3.6,40,0.00,,---,0.00,VWS V13.01,2013-07-17 20:43:00,
2013-07-17 16:48:00,92.3,63.8,0.00,SE,124,0.0,4.0,39,0.00,,---,0.00,VWS V13.01,2013-07-17 20:48:00,
2013-07-17 16:53:00,91.8,66.1,0.00,SE,124,0.0,4.0,43,0.00,,---,0.00,VWS V13.01,2013-07-17 20:53:00,
2013-07-17 16:58:00,91.2,67.6,0.00,SW,215,0.0,4.0,46,0.00,,---,0.00,VWS V13.01,2013-07-17 20:58:00,
2013-07-17 17:03:00,91.2,68.2,0.00,SW,215,0.0,0.0,47,0.00,,---,0.00,VWS V13.01,2013-07-17 21:03:00,
2013-07-17 17:08:00,91.0,70.4,0.00,SW,215,0.0,0.0,51,0.00,,---,0.00,VWS V13.01,2013-07-17 21:08:00,
2013-07-17 17:13:00,90.7,69.5,0.00,SW,215,0.0,0.0,50,0.00,,---,0.00,VWS V13.01,2013-07-17 21:13:00,
2013-07-17 17:18:00,90.5,69.9,0.00,SW,222,2.7,3.1,51,0.00,,---,0.00,VWS V13.01,2013-07-17 21:18:00,
2013-07-17 17:23:00,90.1,69.6,0.00,SW,222,0.0,3.1,51,0.00,,---,0.00,VWS V13.01,2013-07-17 21:23:00,
2013-07-17 17:28:00,89.8,65.6,0.00,NNE,24,3.6,4.0,45,0.00,,---,0.00,VWS V13.01,2013-07-17 21:28:00,
2013-07-17 17:34:00,89.1,65.0,0.00,NE,35,2.2,4.9,45,0.00,,---,0.00,VWS V13.01,2013-07-17 21:34:00,
2013-07-17 17:39:00,88.7,66.5,0.00,NNE,20,0.0,4.9,48,0.00,,---,0.00,VWS V13.01,2013-07-17 21:39:00,
2013-07-17 17:44:00,88.7,66.5,0.00,North,3,0.0,4.0,48,0.00,,---,0.00,VWS V13.01,2013-07-17 21:44:00,
2013-07-17 17:49:00,88.5,65.7,0.00,NNW,333,0.0,4.0,47,0.00,,---,0.00,VWS V13.01,2013-07-17 21:49:00,
2013-07-17 17:54:00,88.2,66.0,0.00,NNW,332,0.0,4.0,48,0.00,,---,0.00,VWS V13.01,2013-07-17 21:54:00,
2013-07-17 17:59:00,87.8,66.9,0.00,NNW,332,0.0,4.0,50,0.00,,---,0.00,VWS V13.01,2013-07-17 21:59:00,
2013-07-17 18:04:00,87.4,67.7,0.00,North,353,0.0,3.6,52,0.00,,---,0.00,VWS V13.01,2013-07-17 22:04:00,
2013-07-17 18:09:00,87.1,67.9,0.00,NNW,331,0.0,3.6,53,0.00,,---,0.00,VWS V13.01,2013-07-17 22:09:00,
2013-07-17 18:14:00,86.7,68.6,0.00,NNW,348,0.0,3.6,55,0.00,,---,0.00,VWS V13.01,2013-07-17 22:14:00,
2013-07-17 18:19:00,86.4,68.8,0.00,North,353,0.0,3.6,56,0.00,,---,0.00,VWS V13.01,2013-07-17 22:19:00,
2013-07-17 18:24:00,86.2,69.2,0.00,North,353,0.0,0.0,57,0.00,,---,0.00,VWS V13.01,2013-07-17 22:24:00,
2013-07-17 18:29:00,86.0,70.0,0.00,North,353,0.0,0.0,59,0.00,,---,0.00,VWS V13.01,2013-07-17 22:29:00,
2013-07-17 18:34:00,85.8,70.3,0.00,North,353,0.0,0.0,60,0.00,,---,0.00,VWS V13.01,2013-07-17 22:34:00,
2013-07-17 18:39:00,85.8,70.8,0.00,North,353,0.0,0.0,61,0.00,,---,0.00,VWS V13.01,2013-07-17 22:39:00,
2013-07-17 18:44:00,85.6,71.1,0.00,North,353,0.0,0.0,62,0.00,,---,0.00,VWS V13.01,2013-07-17 22:44:00,
2013-07-17 18:49:00,85.6,71.6,0.00,North,353,0.0,0.0,63,0.00,,---,0.00,VWS V13.01,2013-07-17 22:49:00,
2013-07-17 18:54:00,85.6,71.6,0.00,North,353,0.0,0.0,63,0.00,,---,0.00,VWS V13.01,2013-07-17 22:54:00,
2013-07-17 18:59:00,85.3,71.7,0.00,North,7,2.2,3.6,64,0.00,,---,0.00,VWS V13.01,2013-07-17 22:59:00,
2013-07-17 19:04:00,84.9,70.0,0.00,NNE,33,5.4,6.3,61,0.00,,---,0.00,VWS V13.01,2013-07-17 23:04:00,
2013-07-17 19:09:00,84.9,70.5,0.00,NE,42,0.0,6.3,62,0.00,,---,0.00,VWS V13.01,2013-07-17 23:09:00,
2013-07-17 19:14:00,84.4,69.0,0.00,NE,37,3.1,6.3,60,0.00,,---,0.00,VWS V13.01,2013-07-17 23:14:00,
2013-07-17 19:19:00,83.8,69.0,0.00,NNW,343,2.7,6.3,61,0.00,,---,0.00,VWS V13.01,2013-07-17 23:19:00,
2013-07-17 19:24:00,83.1,69.2,0.00,NNE,33,0.0,4.5,63,0.00,,---,0.00,VWS V13.01,2013-07-17 23:24:00,
2013-07-17 19:29:00,82.2,69.3,0.00,NNE,33,0.0,4.5,65,0.00,,---,0.00,VWS V13.01,2013-07-17 23:29:00,
2013-07-17 19:34:00,81.9,69.8,0.00,NNE,33,0.0,4.5,67,0.00,,---,0.00,VWS V13.01,2013-07-17 23:34:00,
2013-07-17 19:39:00,81.9,70.3,0.00,NNE,33,0.0,4.5,68,0.00,,---,0.00,VWS V13.01,2013-07-17 23:39:00,
2013-07-17 19:44:00,81.7,70.5,0.00,NNE,33,0.0,0.0,69,0.00,,---,0.00,VWS V13.01,2013-07-17 23:44:00,
2013-07-17 19:49:00,81.5,71.2,0.00,NNE,33,0.0,0.0,71,0.00,,---,0.00,VWS V13.01,2013-07-17 23:49:00,
2013-07-17 19:54:00,81.1,70.8,0.00,NNE,33,0.0,0.0,71,0.00,,---,0.00,VWS V13.01,2013-07-17 23:54:00,
2013-07-17 19:59:00,81.0,71.5,0.00,NNE,33,0.0,0.0,73,0.00,,---,0.00,VWS V13.01,2013-07-17 23:59:00,
2013-07-17 20:04:00,80.8,71.7,0.00,NNE,33,0.0,0.0,74,0.00,,---,0.00,VWS V13.01,2013-07-18 00:04:00,
2013-07-17 20:10:00,80.6,71.6,0.00,NNE,33,0.0,0.0,74,0.00,,---,0.00,VWS V13.01,2013-07-18 00:10:00,
2013-07-17 20:15:00,80.6,71.6,0.00,NNE,33,0.0,0.0,74,0.00,,---,0.00,VWS V13.01,2013-07-18 00:15:00,
2013-07-17 20:20:00,80.4,71.8,0.00,NNE,33,0.0,0.0,75,0.00,,---,0.00,VWS V13.01,2013-07-18 00:20:00,
2013-07-17 20:25:00,80.4,71.8,0.00,NNE,33,0.0,0.0,75,0.00,,---,0.00,VWS V13.01,2013-07-18 00:25:00,
2013-07-17 20:30:00,80.2,72.0,0.00,NNE,33,0.0,0.0,76,0.00,,---,0.00,VWS V13.01,2013-07-18 00:30:00,
2013-07-17 20:35:00,80.2,72.4,0.00,NNE,33,0.0,0.0,77,0.00,,---,0.00,VWS V13.01,2013-07-18 00:35:00,
2013-07-17 20:40:00,80.1,72.2,0.00,NNE,33,0.0,0.0,77,0.00,,---,0.00,VWS V13.01,2013-07-18 00:40:00,
2013-07-17 20:45:00,79.9,72.0,0.00,NNE,33,0.0,0.0,77,0.00,,---,0.00,VWS V13.01,2013-07-18 00:45:00,
2013-07-17 20:50:00,79.9,72.0,0.00,NNE,33,0.0,0.0,77,0.00,,---,0.00,VWS V13.01,2013-07-18 00:50:00,
2013-07-17 20:55:00,79.9,72.4,0.00,NNE,33,0.0,0.0,78,0.00,,---,0.00,VWS V13.01,2013-07-18 00:55:00,
2013-07-17 21:00:00,79.7,72.2,0.00,NNE,33,0.0,0.0,78,0.00,,---,0.00,VWS V13.01,2013-07-18 01:00:00,
2013-07-17 21:04:00,79.3,71.9,0.00,NNE,33,0.0,0.0,78,0.00,,---,0.00,VWS V13.01,2013-07-18 01:04:00,
2013-07-17 21:09:00,79.2,72.1,0.00,NNE,33,0.0,0.0,79,0.00,,---,0.00,VWS V13.01,2013-07-18 01:09:00,
2013-07-17 21:14:00,79.2,72.1,0.00,NNE,33,0.0,0.0,79,0.00,,---,0.00,VWS V13.01,2013-07-18 01:14:00,
2013-07-17 21:19:00,79.2,72.1,0.00,NNE,33,0.0,0.0,79,0.00,,---,0.00,VWS V13.01,2013-07-18 01:19:00,
2013-07-17 21:24:00,79.0,72.3,0.00,NNE,33,0.0,0.0,80,0.00,,---,0.00,VWS V13.01,2013-07-18 01:24:00,
2013-07-17 21:29:00,78.8,72.1,0.00,NNE,33,0.0,0.0,80,0.00,,---,0.00,VWS V13.01,2013-07-18 01:29:00,
2013-07-17 21:34:00,78.8,72.1,0.00,NNE,33,0.0,0.0,80,0.00,,---,0.00,VWS V13.01,2013-07-18 01:34:00,
2013-07-17 21:39:00,78.6,72.3,0.00,NNE,33,0.0,0.0,81,0.00,,---,0.00,VWS V13.01,2013-07-18 01:39:00,
2013-07-17 21:44:00,78.4,72.1,0.00,NNE,33,0.0,0.0,81,0.00,,---,0.00,VWS V13.01,2013-07-18 01:44:00,
2013-07-17 21:49:00,78.4,72.1,0.00,NNE,33,0.0,0.0,81,0.00,,---,0.00,VWS V13.01,2013-07-18 01:49:00,
2013-07-17 21:54:00,78.3,72.3,0.00,NNE,33,0.0,0.0,82,0.00,,---,0.00,VWS V13.01,2013-07-18 01:54:00,
2013-07-17 21:59:00,77.9,72.0,0.00,NNE,33,0.0,0.0,82,0.00,,---,0.00,VWS V13.01,2013-07-18 01:59:00,
2013-07-17 22:04:00,77.9,72.0,0.00,NNE,33,0.0,0.0,82,0.00,,---,0.00,VWS V13.01,2013-07-18 02:04:00,
2013-07-17 22:09:00,77.7,71.8,0.00,NNE,33,0.0,0.0,82,0.00,,---,0.00,VWS V13.01,2013-07-18 02:09:00,
2013-07-17 22:14:00,77.5,71.6,0.00,NNE,33,0.0,0.0,82,0.00,,---,0.00,VWS V13.01,2013-07-18 02:14:00,
2013-07-17 22:19:00,77.4,71.8,0.00,NNE,33,0.0,0.0,83,0.00,,---,0.00,VWS V13.01,2013-07-18 02:19:00,
2013-07-17 22:25:00,77.4,71.8,0.00,NNE,33,0.0,0.0,83,0.00,,---,0.00,VWS V13.01,2013-07-18 02:25:00,
2013-07-17 22:30:00,77.4,71.8,0.00,NNE,33,0.0,0.0,83,0.00,,---,0.00,VWS V13.01,2013-07-18 02:30:00,
2013-07-17 22:35:00,77.4,71.8,0.00,NNE,33,0.0,0.0,83,0.00,,---,0.00,VWS V13.01,2013-07-18 02:35:00,
2013-07-17 22:40:00,77.2,72.0,0.00,NNE,33,0.0,0.0,84,0.00,,---,0.00,VWS V13.01,2013-07-18 02:40:00,
2013-07-17 22:45:00,77.2,72.0,0.00,NNE,33,0.0,0.0,84,0.00,,---,0.00,VWS V13.01,2013-07-18 02:45:00,
2013-07-17 22:50:00,77.2,72.0,0.00,NNE,33,0.0,0.0,84,0.00,,---,0.00,VWS V13.01,2013-07-18 02:50:00,
2013-07-17 22:55:00,77.2,72.0,0.00,NNE,33,0.0,0.0,84,0.00,,---,0.00,VWS V13.01,2013-07-18 02:55:00,
2013-07-17 22:59:00,77.2,72.3,0.00,NNE,33,0.0,0.0,85,0.00,,---,0.00,VWS V13.01,2013-07-18 02:59:00,
2013-07-17 23:04:00,77.0,72.2,0.00,NNE,33,0.0,0.0,85,0.00,,---,0.00,VWS V13.01,2013-07-18 03:04:00,
2013-07-17 23:09:00,76.8,72.0,0.00,NNE,33,0.0,0.0,85,0.00,,---,0.00,VWS V13.01,2013-07-18 03:09:00,
2013-07-17 23:14:00,76.6,71.8,0.00,NNE,33,0.0,0.0,85,0.00,,---,0.00,VWS V13.01,2013-07-18 03:14:00,
2013-07-17 23:19:00,76.6,71.8,0.00,NNE,33,0.0,0.0,85,0.00,,---,0.00,VWS V13.01,2013-07-18 03:19:00,
2013-07-17 23:24:00,76.6,71.8,0.00,NNE,33,0.0,0.0,85,0.00,,---,0.00,VWS V13.01,2013-07-18 03:24:00,
2013-07-17 23:29:00,76.5,71.6,0.00,NNE,33,0.0,0.0,85,0.00,,---,0.00,VWS V13.01,2013-07-18 03:29:00,
2013-07-17 23:34:00,76.5,72.0,0.00,NNE,33,0.0,0.0,86,0.00,,---,0.00,VWS V13.01,2013-07-18 03:34:00,
2013-07-17 23:39:00,76.5,72.0,0.00,NNE,33,0.0,0.0,86,0.00,,---,0.00,VWS V13.01,2013-07-18 03:39:00,
2013-07-17 23:44:00,76.5,72.0,0.00,NNE,33,0.0,0.0,86,0.00,,---,0.00,VWS V13.01,2013-07-18 03:44:00,
2013-07-17 23:49:00,76.5,72.3,0.00,NNE,33,0.0,0.0,87,0.00,,---,0.00,VWS V13.01,2013-07-18 03:49:00,
2013-07-17 23:54:00,76.3,72.1,0.00,NNE,33,0.0,0.0,87,0.00,,---,0.00,VWS V13.01,2013-07-18 03:54:00,
2013-07-17 23:59:00,76.1,71.9,0.00,NNE,33,0.0,0.0,87,0.00,,---,0.00,VWS V13.01,2013-07-18 03:59:00,